YSWG/WGA METAR and TAF weather

Enter ICAO airport designator
Station Type Date Time Source
YSWG METAR 2021/04/13 23:00 UTC NOAA

YSWG 132300Z AUTO 01004KT 9999 // OVC100 17/05 Q1015


Station Type Date Time Source
YSWG Decoded METAR 2021/04/13 23:00 UTC NOAA

Wagga Airport, Australia (YSWG) 35-09S 147-27E 213M
Apr 13, 2021 - 07:00 PM EDT / 2021.04.13 2300 UTC
Wind: from the N (010 degrees) at 5 MPH (4 KT):0
Visibility: greater than 7 mile(s):0
Sky conditions: overcast
Temperature: 62 F (17 C)
Dew Point: 41 F (5 C)
Relative Humidity: 45%
Pressure (altimeter): 29.97 in. Hg (1015 hPa)
ob: YSWG 132300Z AUTO 01004KT 9999 // OVC100 17/05 Q1015
cycle: 23

Station Type Date Time Source
YSWG TAF 2018/05/25 18:03 UTC NOAA

TAF YSWG 251649Z 2518/2608 07008KT CAVOK

Example: see airport list